sensor_id;sensor_type;location;lat;lon;timestamp;P1;durP1;ratioP1;P2;durP2;ratioP2
5414;SDS011;2730;51.512;7.504;2023-03-30T00:01:03;2.05;;;1.85;;
5414;SDS011;2730;51.512;7.504;2023-03-30T00:03:33;1.40;;;1.30;;
5414;SDS011;2730;51.512;7.504;2023-03-30T00:06:03;3.35;;;1.60;;
5414;SDS011;2730;51.512;7.504;2023-03-30T00:08:31;2.15;;;1.20;;
5414;SDS011;2730;51.512;7.504;2023-03-30T00:10:59;2.00;;;1.90;;
5414;SDS011;2730;51.512;7.504;2023-03-30T00:13:26;4.45;;;1.63;;
5414;SDS011;2730;51.512;7.504;2023-03-30T00:15:54;5.07;;;1.77;;
5414;SDS011;2730;51.512;7.504;2023-03-30T00:18:21;3.70;;;2.67;;
5414;SDS011;2730;51.512;7.504;2023-03-30T00:20:48;2.10;;;1.65;;
5414;SDS011;2730;51.512;7.504;2023-03-30T00:23:15;3.45;;;1.75;;
5414;SDS011;2730;51.512;7.504;2023-03-30T00:25:43;4.05;;;1.80;;
5414;SDS011;2730;51.512;7.504;2023-03-30T00:28:10;3.92;;;1.55;;
5414;SDS011;2730;51.512;7.504;2023-03-30T00:30:37;2.45;;;1.60;;
5414;SDS011;2730;51.512;7.504;2023-03-30T00:33:05;1.50;;;1.40;;
5414;SDS011;2730;51.512;7.504;2023-03-30T00:35:32;2.90;;;1.75;;
5414;SDS011;2730;51.512;7.504;2023-03-30T00:37:59;7.50;;;1.83;;
5414;SDS011;2730;51.512;7.504;2023-03-30T00:40:27;4.60;;;1.50;;
5414;SDS011;2730;51.512;7.504;2023-03-30T00:42:57;3.58;;;1.50;;
5414;SDS011;2730;51.512;7.504;2023-03-30T00:45:25;9.18;;;1.70;;
5414;SDS011;2730;51.512;7.504;2023-03-30T00:47:55;4.05;;;1.25;;
5414;SDS011;2730;51.512;7.504;2023-03-30T00:50:29;5.40;;;1.85;;
5414;SDS011;2730;51.512;7.504;2023-03-30T00:53:00;3.33;;;1.90;;
5414;SDS011;2730;51.512;7.504;2023-03-30T00:55:31;8.55;;;3.28;;
5414;SDS011;2730;51.512;7.504;2023-03-30T00:58:00;5.78;;;4.38;;
5414;SDS011;2730;51.512;7.504;2023-03-30T01:00:27;11.35;;;6.60;;
5414;SDS011;2730;51.512;7.504;2023-03-30T01:02:55;9.05;;;7.22;;
5414;SDS011;2730;51.512;7.504;2023-03-30T01:05:27;15.25;;;9.18;;
5414;SDS011;2730;51.512;7.504;2023-03-30T01:07:55;15.77;;;10.63;;
5414;SDS011;2730;51.512;7.504;2023-03-30T01:10:23;21.98;;;10.30;;
5414;SDS011;2730;51.512;7.504;2023-03-30T01:12:50;19.27;;;8.52;;
5414;SDS011;2730;51.512;7.504;2023-03-30T01:15:17;16.20;;;7.57;;
5414;SDS011;2730;51.512;7.504;2023-03-30T01:17:53;8.23;;;4.20;;
5414;SDS011;2730;51.512;7.504;2023-03-30T01:23:53;2.60;;;1.50;;
5414;SDS011;2730;51.512;7.504;2023-03-30T01:27:00;6.25;;;1.95;;
5414;SDS011;2730;51.512;7.504;2023-03-30T01:29:37;6.30;;;1.73;;
5414;SDS011;2730;51.512;7.504;2023-03-30T01:35:34;6.80;;;2.00;;
5414;SDS011;2730;51.512;7.504;2023-03-30T01:41:19;4.55;;;2.10;;
5414;SDS011;2730;51.512;7.504;2023-03-30T01:43:55;2.10;;;1.45;;
5414;SDS011;2730;51.512;7.504;2023-03-30T01:46:27;1.98;;;1.40;;
5414;SDS011;2730;51.512;7.504;2023-03-30T01:48:59;2.58;;;1.20;;
5414;SDS011;2730;51.512;7.504;2023-03-30T01:51:36;1.65;;;1.50;;
5414;SDS011;2730;51.512;7.504;2023-03-30T01:54:09;2.45;;;1.52;;
5414;SDS011;2730;51.512;7.504;2023-03-30T01:56:39;3.25;;;1.80;;
5414;SDS011;2730;51.512;7.504;2023-03-30T01:59:11;1.90;;;1.70;;
5414;SDS011;2730;51.512;7.504;2023-03-30T02:01:43;1.67;;;1.58;;
5414;SDS011;2730;51.512;7.504;2023-03-30T02:04:14;7.18;;;1.30;;
5414;SDS011;2730;51.512;7.504;2023-03-30T02:06:44;4.93;;;1.73;;
5414;SDS011;2730;51.512;7.504;2023-03-30T02:09:15;3.73;;;1.50;;
5414;SDS011;2730;51.512;7.504;2023-03-30T02:11:46;4.65;;;1.65;;
5414;SDS011;2730;51.512;7.504;2023-03-30T02:14:17;4.60;;;1.77;;
5414;SDS011;2730;51.512;7.504;2023-03-30T02:16:48;7.13;;;2.70;;
5414;SDS011;2730;51.512;7.504;2023-03-30T02:19:18;3.63;;;1.70;;
5414;SDS011;2730;51.512;7.504;2023-03-30T02:21:45;7.17;;;1.97;;
5414;SDS011;2730;51.512;7.504;2023-03-30T02:24:16;4.88;;;2.65;;
5414;SDS011;2730;51.512;7.504;2023-03-30T02:26:45;4.37;;;1.53;;
5414;SDS011;2730;51.512;7.504;2023-03-30T02:29:14;2.83;;;1.30;;
5414;SDS011;2730;51.512;7.504;2023-03-30T02:31:42;2.57;;;1.70;;
5414;SDS011;2730;51.512;7.504;2023-03-30T02:34:13;4.80;;;1.42;;
5414;SDS011;2730;51.512;7.504;2023-03-30T02:39:51;3.65;;;1.42;;
5414;SDS011;2730;51.512;7.504;2023-03-30T02:42:38;4.55;;;2.00;;
5414;SDS011;2730;51.512;7.504;2023-03-30T02:45:24;2.75;;;1.30;;
5414;SDS011;2730;51.512;7.504;2023-03-30T02:48:02;6.65;;;2.17;;
5414;SDS011;2730;51.512;7.504;2023-03-30T02:50:41;6.40;;;2.43;;
5414;SDS011;2730;51.512;7.504;2023-03-30T02:53:13;2.83;;;1.80;;
5414;SDS011;2730;51.512;7.504;2023-03-30T02:55:49;3.30;;;1.48;;
5414;SDS011;2730;51.512;7.504;2023-03-30T02:58:30;3.80;;;1.60;;
5414;SDS011;2730;51.512;7.504;2023-03-30T03:01:00;4.00;;;1.70;;
5414;SDS011;2730;51.512;7.504;2023-03-30T03:03:31;11.98;;;2.10;;
5414;SDS011;2730;51.512;7.504;2023-03-30T03:06:01;5.47;;;2.03;;
5414;SDS011;2730;51.512;7.504;2023-03-30T03:08:31;4.40;;;1.60;;
5414;SDS011;2730;51.512;7.504;2023-03-30T03:11:01;2.80;;;1.60;;
5414;SDS011;2730;51.512;7.504;2023-03-30T03:13:28;3.13;;;1.75;;
5414;SDS011;2730;51.512;7.504;2023-03-30T03:15:56;5.10;;;2.97;;
5414;SDS011;2730;51.512;7.504;2023-03-30T03:18:23;4.70;;;1.70;;
5414;SDS011;2730;51.512;7.504;2023-03-30T03:20:50;6.70;;;1.92;;
5414;SDS011;2730;51.512;7.504;2023-03-30T03:23:16;4.28;;;1.70;;
5414;SDS011;2730;51.512;7.504;2023-03-30T03:25:43;3.67;;;1.70;;
5414;SDS011;2730;51.512;7.504;2023-03-30T03:28:11;9.48;;;2.38;;
5414;SDS011;2730;51.512;7.504;2023-03-30T03:30:38;6.18;;;1.75;;
5414;SDS011;2730;51.512;7.504;2023-03-30T03:33:05;4.70;;;1.65;;
5414;SDS011;2730;51.512;7.504;2023-03-30T03:35:32;3.03;;;1.67;;
5414;SDS011;2730;51.512;7.504;2023-03-30T03:37:59;4.32;;;1.67;;
5414;SDS011;2730;51.512;7.504;2023-03-30T03:40:25;3.67;;;2.28;;
5414;SDS011;2730;51.512;7.504;2023-03-30T03:42:52;3.45;;;1.60;;
5414;SDS011;2730;51.512;7.504;2023-03-30T03:45:20;6.60;;;1.90;;
5414;SDS011;2730;51.512;7.504;2023-03-30T03:47:48;3.53;;;1.75;;
5414;SDS011;2730;51.512;7.504;2023-03-30T03:50:15;4.90;;;1.92;;
5414;SDS011;2730;51.512;7.504;2023-03-30T03:52:42;3.45;;;1.45;;
5414;SDS011;2730;51.512;7.504;2023-03-30T03:55:09;4.60;;;2.38;;
5414;SDS011;2730;51.512;7.504;2023-03-30T03:57:36;7.70;;;1.77;;
5414;SDS011;2730;51.512;7.504;2023-03-30T04:00:04;2.45;;;1.42;;
5414;SDS011;2730;51.512;7.504;2023-03-30T04:02:40;6.30;;;1.80;;
5414;SDS011;2730;51.512;7.504;2023-03-30T04:05:08;6.05;;;1.98;;
5414;SDS011;2730;51.512;7.504;2023-03-30T04:07:35;2.47;;;1.37;;
5414;SDS011;2730;51.512;7.504;2023-03-30T04:10:01;2.87;;;1.50;;
5414;SDS011;2730;51.512;7.504;2023-03-30T04:12:29;1.87;;;1.40;;
5414;SDS011;2730;51.512;7.504;2023-03-30T04:14:56;9.55;;;1.70;;
5414;SDS011;2730;51.512;7.504;2023-03-30T04:17:23;4.82;;;1.35;;
5414;SDS011;2730;51.512;7.504;2023-03-30T04:19:51;7.90;;;1.90;;
5414;SDS011;2730;51.512;7.504;2023-03-30T04:22:19;7.03;;;1.65;;
5414;SDS011;2730;51.512;7.504;2023-03-30T04:24:48;2.05;;;1.50;;
5414;SDS011;2730;51.512;7.504;2023-03-30T04:27:15;3.57;;;1.57;;
5414;SDS011;2730;51.512;7.504;2023-03-30T04:29:42;6.63;;;2.10;;
5414;SDS011;2730;51.512;7.504;2023-03-30T04:32:09;6.27;;;1.70;;
5414;SDS011;2730;51.512;7.504;2023-03-30T04:34:36;6.50;;;2.10;;
5414;SDS011;2730;51.512;7.504;2023-03-30T04:37:07;3.77;;;1.70;;
5414;SDS011;2730;51.512;7.504;2023-03-30T04:39:34;1.83;;;1.47;;
5414;SDS011;2730;51.512;7.504;2023-03-30T04:42:01;2.93;;;1.43;;
5414;SDS011;2730;51.512;7.504;2023-03-30T04:44:30;3.03;;;1.90;;
5414;SDS011;2730;51.512;7.504;2023-03-30T04:46:57;8.25;;;1.73;;
5414;SDS011;2730;51.512;7.504;2023-03-30T04:49:23;23.27;;;2.30;;
5414;SDS011;2730;51.512;7.504;2023-03-30T04:51:50;10.23;;;1.57;;
5414;SDS011;2730;51.512;7.504;2023-03-30T04:54:20;3.67;;;1.70;;
5414;SDS011;2730;51.512;7.504;2023-03-30T04:56:46;3.00;;;1.73;;
5414;SDS011;2730;51.512;7.504;2023-03-30T04:59:13;8.73;;;1.90;;
5414;SDS011;2730;51.512;7.504;2023-03-30T05:01:40;1.40;;;1.30;;
5414;SDS011;2730;51.512;7.504;2023-03-30T05:04:07;3.83;;;1.50;;
5414;SDS011;2730;51.512;7.504;2023-03-30T05:06:34;3.77;;;2.20;;
5414;SDS011;2730;51.512;7.504;2023-03-30T05:09:00;4.32;;;2.13;;
5414;SDS011;2730;51.512;7.504;2023-03-30T05:11:29;6.00;;;2.50;;
5414;SDS011;2730;51.512;7.504;2023-03-30T05:13:55;6.60;;;1.90;;
5414;SDS011;2730;51.512;7.504;2023-03-30T05:16:22;3.50;;;1.50;;
5414;SDS011;2730;51.512;7.504;2023-03-30T05:18:49;5.20;;;1.93;;
5414;SDS011;2730;51.512;7.504;2023-03-30T05:21:16;3.40;;;1.30;;
5414;SDS011;2730;51.512;7.504;2023-03-30T05:23:42;3.20;;;2.20;;
5414;SDS011;2730;51.512;7.504;2023-03-30T05:26:09;2.93;;;1.57;;
5414;SDS011;2730;51.512;7.504;2023-03-30T05:28:37;4.47;;;2.35;;
5414;SDS011;2730;51.512;7.504;2023-03-30T05:31:04;4.10;;;1.70;;
5414;SDS011;2730;51.512;7.504;2023-03-30T05:33:31;2.90;;;1.47;;
5414;SDS011;2730;51.512;7.504;2023-03-30T05:35:58;3.30;;;1.80;;
5414;SDS011;2730;51.512;7.504;2023-03-30T05:38:25;6.37;;;2.07;;
5414;SDS011;2730;51.512;7.504;2023-03-30T05:40:52;8.13;;;2.27;;
5414;SDS011;2730;51.512;7.504;2023-03-30T05:43:19;8.20;;;2.10;;
5414;SDS011;2730;51.512;7.504;2023-03-30T05:45:47;6.40;;;3.10;;
5414;SDS011;2730;51.512;7.504;2023-03-30T05:48:14;2.28;;;1.80;;
5414;SDS011;2730;51.512;7.504;2023-03-30T05:50:41;4.97;;;2.00;;
5414;SDS011;2730;51.512;7.504;2023-03-30T05:53:08;6.50;;;1.60;;
5414;SDS011;2730;51.512;7.504;2023-03-30T05:55:35;9.90;;;2.07;;
5414;SDS011;2730;51.512;7.504;2023-03-30T05:58:02;8.52;;;2.00;;
5414;SDS011;2730;51.512;7.504;2023-03-30T06:00:28;5.47;;;1.90;;
5414;SDS011;2730;51.512;7.504;2023-03-30T06:02:58;3.53;;;1.90;;
5414;SDS011;2730;51.512;7.504;2023-03-30T06:05:25;4.50;;;3.43;;
5414;SDS011;2730;51.512;7.504;2023-03-30T06:07:52;4.80;;;1.80;;
5414;SDS011;2730;51.512;7.504;2023-03-30T06:10:20;3.47;;;2.00;;
5414;SDS011;2730;51.512;7.504;2023-03-30T06:12:46;4.37;;;2.20;;
5414;SDS011;2730;51.512;7.504;2023-03-30T06:15:13;3.30;;;1.80;;
5414;SDS011;2730;51.512;7.504;2023-03-30T06:17:40;8.20;;;2.00;;
5414;SDS011;2730;51.512;7.504;2023-03-30T06:20:09;6.50;;;1.70;;
5414;SDS011;2730;51.512;7.504;2023-03-30T06:22:37;1.80;;;1.50;;
5414;SDS011;2730;51.512;7.504;2023-03-30T06:25:06;5.60;;;2.00;;
5414;SDS011;2730;51.512;7.504;2023-03-30T06:27:33;8.20;;;2.33;;
5414;SDS011;2730;51.512;7.504;2023-03-30T06:30:01;9.90;;;2.63;;
5414;SDS011;2730;51.512;7.504;2023-03-30T06:32:28;2.80;;;1.60;;
5414;SDS011;2730;51.512;7.504;2023-03-30T06:34:55;7.22;;;1.90;;
5414;SDS011;2730;51.512;7.504;2023-03-30T06:37:23;3.07;;;1.60;;
5414;SDS011;2730;51.512;7.504;2023-03-30T06:39:50;2.97;;;1.48;;
5414;SDS011;2730;51.512;7.504;2023-03-30T06:42:17;5.78;;;1.60;;
5414;SDS011;2730;51.512;7.504;2023-03-30T06:44:44;2.50;;;1.43;;
5414;SDS011;2730;51.512;7.504;2023-03-30T06:47:11;6.57;;;1.57;;
5414;SDS011;2730;51.512;7.504;2023-03-30T06:49:38;2.60;;;1.30;;
5414;SDS011;2730;51.512;7.504;2023-03-30T06:52:05;3.30;;;1.60;;
5414;SDS011;2730;51.512;7.504;2023-03-30T06:54:33;3.10;;;1.60;;
5414;SDS011;2730;51.512;7.504;2023-03-30T06:56:59;9.20;;;2.10;;
5414;SDS011;2730;51.512;7.504;2023-03-30T06:59:26;4.07;;;1.50;;
5414;SDS011;2730;51.512;7.504;2023-03-30T07:01:53;7.70;;;1.77;;
5414;SDS011;2730;51.512;7.504;2023-03-30T07:04:20;2.27;;;1.60;;
5414;SDS011;2730;51.512;7.504;2023-03-30T07:06:47;2.50;;;1.40;;
5414;SDS011;2730;51.512;7.504;2023-03-30T07:09:14;11.53;;;1.53;;
5414;SDS011;2730;51.512;7.504;2023-03-30T07:11:42;7.50;;;2.00;;
5414;SDS011;2730;51.512;7.504;2023-03-30T07:14:09;5.37;;;2.27;;
5414;SDS011;2730;51.512;7.504;2023-03-30T07:16:36;2.93;;;1.67;;
5414;SDS011;2730;51.512;7.504;2023-03-30T07:19:03;2.90;;;2.43;;
5414;SDS011;2730;51.512;7.504;2023-03-30T07:21:30;2.40;;;1.60;;
5414;SDS011;2730;51.512;7.504;2023-03-30T07:23:57;6.97;;;1.77;;
5414;SDS011;2730;51.512;7.504;2023-03-30T07:26:25;3.13;;;1.83;;
5414;SDS011;2730;51.512;7.504;2023-03-30T07:28:53;5.40;;;1.90;;
5414;SDS011;2730;51.512;7.504;2023-03-30T07:31:21;6.30;;;1.80;;
5414;SDS011;2730;51.512;7.504;2023-03-30T07:33:49;5.33;;;2.53;;
5414;SDS011;2730;51.512;7.504;2023-03-30T07:36:16;6.23;;;1.67;;
5414;SDS011;2730;51.512;7.504;2023-03-30T07:38:43;1.80;;;1.70;;
5414;SDS011;2730;51.512;7.504;2023-03-30T07:41:11;2.87;;;1.63;;
5414;SDS011;2730;51.512;7.504;2023-03-30T07:43:39;9.30;;;1.60;;
5414;SDS011;2730;51.512;7.504;2023-03-30T07:46:07;3.90;;;1.83;;
5414;SDS011;2730;51.512;7.504;2023-03-30T07:48:35;3.70;;;1.60;;
5414;SDS011;2730;51.512;7.504;2023-03-30T07:51:05;5.90;;;2.10;;
5414;SDS011;2730;51.512;7.504;2023-03-30T07:53:33;4.50;;;1.50;;
5414;SDS011;2730;51.512;7.504;2023-03-30T07:56:00;4.70;;;2.30;;
5414;SDS011;2730;51.512;7.504;2023-03-30T07:58:27;6.30;;;2.03;;
5414;SDS011;2730;51.512;7.504;2023-03-30T08:00:54;4.73;;;1.27;;
5414;SDS011;2730;51.512;7.504;2023-03-30T08:03:22;1.67;;;1.20;;
5414;SDS011;2730;51.512;7.504;2023-03-30T08:05:53;4.20;;;1.60;;
5414;SDS011;2730;51.512;7.504;2023-03-30T08:08:20;3.20;;;2.07;;
5414;SDS011;2730;51.512;7.504;2023-03-30T08:10:47;2.33;;;1.43;;
5414;SDS011;2730;51.512;7.504;2023-03-30T08:13:14;2.30;;;1.40;;
5414;SDS011;2730;51.512;7.504;2023-03-30T08:15:41;7.10;;;1.83;;
5414;SDS011;2730;51.512;7.504;2023-03-30T08:18:08;1.40;;;1.20;;
5414;SDS011;2730;51.512;7.504;2023-03-30T08:20:38;5.00;;;1.80;;
5414;SDS011;2730;51.512;7.504;2023-03-30T08:23:06;5.17;;;1.77;;
5414;SDS011;2730;51.512;7.504;2023-03-30T08:25:33;2.83;;;1.43;;
5414;SDS011;2730;51.512;7.504;2023-03-30T08:28:00;5.73;;;1.93;;
5414;SDS011;2730;51.512;7.504;2023-03-30T08:30:28;3.40;;;2.10;;
5414;SDS011;2730;51.512;7.504;2023-03-30T08:32:55;3.00;;;2.00;;
5414;SDS011;2730;51.512;7.504;2023-03-30T08:35:22;8.10;;;1.90;;
5414;SDS011;2730;51.512;7.504;2023-03-30T08:37:50;2.30;;;1.60;;
5414;SDS011;2730;51.512;7.504;2023-03-30T08:40:17;5.50;;;1.60;;
5414;SDS011;2730;51.512;7.504;2023-03-30T08:45:36;2.60;;;1.40;;
5414;SDS011;2730;51.512;7.504;2023-03-30T08:48:06;1.70;;;1.17;;
5414;SDS011;2730;51.512;7.504;2023-03-30T08:50:41;4.30;;;1.37;;
5414;SDS011;2730;51.512;7.504;2023-03-30T08:53:13;7.13;;;2.03;;
5414;SDS011;2730;51.512;7.504;2023-03-30T08:55:40;3.10;;;1.60;;
5414;SDS011;2730;51.512;7.504;2023-03-30T08:58:12;2.33;;;1.50;;
5414;SDS011;2730;51.512;7.504;2023-03-30T09:00:44;4.33;;;1.63;;
5414;SDS011;2730;51.512;7.504;2023-03-30T09:03:17;8.50;;;1.90;;
5414;SDS011;2730;51.512;7.504;2023-03-30T09:05:51;2.03;;;1.40;;
5414;SDS011;2730;51.512;7.504;2023-03-30T09:08:26;5.77;;;1.80;;
5414;SDS011;2730;51.512;7.504;2023-03-30T09:10:56;2.50;;;1.90;;
5414;SDS011;2730;51.512;7.504;2023-03-30T09:13:26;7.07;;;3.30;;
5414;SDS011;2730;51.512;7.504;2023-03-30T09:15:56;7.70;;;1.70;;
5414;SDS011;2730;51.512;7.504;2023-03-30T09:18:29;3.80;;;2.53;;
5414;SDS011;2730;51.512;7.504;2023-03-30T09:20:58;3.63;;;1.60;;
5414;SDS011;2730;51.512;7.504;2023-03-30T09:23:28;7.17;;;1.87;;
5414;SDS011;2730;51.512;7.504;2023-03-30T09:25:58;2.60;;;1.43;;
5414;SDS011;2730;51.512;7.504;2023-03-30T09:28:32;4.47;;;1.60;;
5414;SDS011;2730;51.512;7.504;2023-03-30T09:31:05;4.03;;;2.20;;
5414;SDS011;2730;51.512;7.504;2023-03-30T09:33:39;8.20;;;1.60;;
5414;SDS011;2730;51.512;7.504;2023-03-30T09:36:12;7.27;;;2.63;;
5414;SDS011;2730;51.512;7.504;2023-03-30T09:38:41;4.77;;;1.37;;
5414;SDS011;2730;51.512;7.504;2023-03-30T09:41:17;3.87;;;1.53;;
5414;SDS011;2730;51.512;7.504;2023-03-30T09:43:53;5.53;;;1.90;;
5414;SDS011;2730;51.512;7.504;2023-03-30T09:46:23;11.27;;;1.90;;
5414;SDS011;2730;51.512;7.504;2023-03-30T09:48:49;9.90;;;1.90;;
5414;SDS011;2730;51.512;7.504;2023-03-30T09:51:18;9.90;;;2.07;;
5414;SDS011;2730;51.512;7.504;2023-03-30T09:53:49;6.97;;;2.13;;
5414;SDS011;2730;51.512;7.504;2023-03-30T09:56:25;6.57;;;1.73;;
5414;SDS011;2730;51.512;7.504;2023-03-30T09:58:53;3.93;;;1.90;;
5414;SDS011;2730;51.512;7.504;2023-03-30T10:01:20;5.37;;;2.03;;
5414;SDS011;2730;51.512;7.504;2023-03-30T10:06:35;5.50;;;1.57;;
5414;SDS011;2730;51.512;7.504;2023-03-30T10:09:08;10.13;;;2.37;;
5414;SDS011;2730;51.512;7.504;2023-03-30T10:11:37;3.87;;;2.10;;
5414;SDS011;2730;51.512;7.504;2023-03-30T10:14:11;2.57;;;1.57;;
5414;SDS011;2730;51.512;7.504;2023-03-30T10:16:52;7.07;;;2.00;;
5414;SDS011;2730;51.512;7.504;2023-03-30T10:19:20;5.03;;;1.40;;
5414;SDS011;2730;51.512;7.504;2023-03-30T10:21:51;8.90;;;1.73;;
5414;SDS011;2730;51.512;7.504;2023-03-30T10:24:21;5.23;;;1.23;;
5414;SDS011;2730;51.512;7.504;2023-03-30T10:26:50;2.70;;;1.30;;
5414;SDS011;2730;51.512;7.504;2023-03-30T10:29:20;6.37;;;1.90;;
5414;SDS011;2730;51.512;7.504;2023-03-30T10:31:48;6.10;;;2.90;;
5414;SDS011;2730;51.512;7.504;2023-03-30T10:34:22;5.40;;;1.70;;
5414;SDS011;2730;51.512;7.504;2023-03-30T10:37:00;11.63;;;2.00;;
5414;SDS011;2730;51.512;7.504;2023-03-30T10:39:33;6.18;;;1.60;;
5414;SDS011;2730;51.512;7.504;2023-03-30T10:42:01;11.07;;;2.33;;
5414;SDS011;2730;51.512;7.504;2023-03-30T10:44:31;3.95;;;1.40;;
5414;SDS011;2730;51.512;7.504;2023-03-30T10:47:07;12.02;;;1.70;;
5414;SDS011;2730;51.512;7.504;2023-03-30T10:49:49;7.63;;;1.90;;
5414;SDS011;2730;51.512;7.504;2023-03-30T10:52:28;7.65;;;1.80;;
5414;SDS011;2730;51.512;7.504;2023-03-30T10:55:06;4.50;;;1.38;;
5414;SDS011;2730;51.512;7.504;2023-03-30T10:57:41;4.57;;;1.65;;
5414;SDS011;2730;51.512;7.504;2023-03-30T11:00:27;7.45;;;2.30;;
5414;SDS011;2730;51.512;7.504;2023-03-30T11:03:12;5.57;;;2.58;;
5414;SDS011;2730;51.512;7.504;2023-03-30T11:05:44;6.60;;;2.00;;
5414;SDS011;2730;51.512;7.504;2023-03-30T11:08:14;10.23;;;2.15;;
5414;SDS011;2730;51.512;7.504;2023-03-30T11:10:46;9.13;;;2.40;;
5414;SDS011;2730;51.512;7.504;2023-03-30T11:13:16;5.68;;;2.30;;
5414;SDS011;2730;51.512;7.504;2023-03-30T11:15:48;7.65;;;2.33;;
5414;SDS011;2730;51.512;7.504;2023-03-30T11:18:18;4.93;;;1.67;;
5414;SDS011;2730;51.512;7.504;2023-03-30T11:20:49;11.35;;;1.88;;
5414;SDS011;2730;51.512;7.504;2023-03-30T11:23:23;5.22;;;2.05;;
5414;SDS011;2730;51.512;7.504;2023-03-30T11:26:01;9.35;;;2.20;;
5414;SDS011;2730;51.512;7.504;2023-03-30T11:28:41;7.07;;;2.13;;
5414;SDS011;2730;51.512;7.504;2023-03-30T11:31:21;4.22;;;2.20;;
5414;SDS011;2730;51.512;7.504;2023-03-30T11:33:57;7.03;;;2.00;;
5414;SDS011;2730;51.512;7.504;2023-03-30T11:36:31;9.13;;;2.30;;
5414;SDS011;2730;51.512;7.504;2023-03-30T11:39:05;4.10;;;1.98;;
5414;SDS011;2730;51.512;7.504;2023-03-30T11:41:41;17.50;;;3.37;;
5414;SDS011;2730;51.512;7.504;2023-03-30T11:44:12;8.70;;;2.07;;
5414;SDS011;2730;51.512;7.504;2023-03-30T11:46:40;11.13;;;3.77;;
5414;SDS011;2730;51.512;7.504;2023-03-30T11:52:02;3.60;;;2.10;;
5414;SDS011;2730;51.512;7.504;2023-03-30T11:54:40;12.20;;;2.87;;
5414;SDS011;2730;51.512;7.504;2023-03-30T11:57:28;9.00;;;3.00;;
5414;SDS011;2730;51.512;7.504;2023-03-30T12:00:02;5.30;;;2.97;;
5414;SDS011;2730;51.512;7.504;2023-03-30T12:02:45;6.50;;;2.50;;
5414;SDS011;2730;51.512;7.504;2023-03-30T12:05:18;7.90;;;2.70;;
5414;SDS011;2730;51.512;7.504;2023-03-30T12:07:52;6.87;;;2.27;;
5414;SDS011;2730;51.512;7.504;2023-03-30T12:10:30;5.27;;;2.13;;
5414;SDS011;2730;51.512;7.504;2023-03-30T12:13:03;5.77;;;2.40;;
5414;SDS011;2730;51.512;7.504;2023-03-30T12:15:33;3.70;;;2.27;;
5414;SDS011;2730;51.512;7.504;2023-03-30T12:18:10;4.67;;;2.17;;
5414;SDS011;2730;51.512;7.504;2023-03-30T12:20:45;11.73;;;2.50;;
5414;SDS011;2730;51.512;7.504;2023-03-30T12:23:20;7.13;;;1.93;;
5414;SDS011;2730;51.512;7.504;2023-03-30T12:26:01;4.37;;;2.00;;
5414;SDS011;2730;51.512;7.504;2023-03-30T12:28:43;5.27;;;1.90;;
5414;SDS011;2730;51.512;7.504;2023-03-30T12:31:12;15.97;;;2.43;;
5414;SDS011;2730;51.512;7.504;2023-03-30T12:33:44;8.33;;;2.57;;
5414;SDS011;2730;51.512;7.504;2023-03-30T12:36:22;6.70;;;3.00;;
5414;SDS011;2730;51.512;7.504;2023-03-30T12:38:58;6.53;;;2.47;;
5414;SDS011;2730;51.512;7.504;2023-03-30T12:41:26;6.23;;;2.40;;
5414;SDS011;2730;51.512;7.504;2023-03-30T12:44:24;3.53;;;2.47;;
5414;SDS011;2730;51.512;7.504;2023-03-30T12:47:05;3.30;;;2.05;;
5414;SDS011;2730;51.512;7.504;2023-03-30T12:49:53;6.55;;;2.30;;
5414;SDS011;2730;51.512;7.504;2023-03-30T12:52:33;7.05;;;2.40;;
5414;SDS011;2730;51.512;7.504;2023-03-30T12:55:16;11.13;;;3.20;;
5414;SDS011;2730;51.512;7.504;2023-03-30T12:57:58;6.95;;;2.15;;
5414;SDS011;2730;51.512;7.504;2023-03-30T13:00:43;3.63;;;2.15;;
5414;SDS011;2730;51.512;7.504;2023-03-30T13:03:34;9.45;;;2.00;;
5414;SDS011;2730;51.512;7.504;2023-03-30T13:06:04;5.18;;;2.60;;
5414;SDS011;2730;51.512;7.504;2023-03-30T13:08:36;3.08;;;2.15;;
5414;SDS011;2730;51.512;7.504;2023-03-30T13:11:15;2.22;;;1.60;;
5414;SDS011;2730;51.512;7.504;2023-03-30T13:13:44;3.00;;;1.10;;
5414;SDS011;2730;51.512;7.504;2023-03-30T13:19:13;2.35;;;1.55;;
5414;SDS011;2730;51.512;7.504;2023-03-30T13:21:47;2.75;;;1.20;;
5414;SDS011;2730;51.512;7.504;2023-03-30T13:24:23;1.10;;;1.00;;
5414;SDS011;2730;51.512;7.504;2023-03-30T13:26:52;1.58;;;1.20;;
5414;SDS011;2730;51.512;7.504;2023-03-30T13:29:20;2.22;;;1.20;;
5414;SDS011;2730;51.512;7.504;2023-03-30T13:32:03;4.43;;;1.35;;
5414;SDS011;2730;51.512;7.504;2023-03-30T13:34:46;1.38;;;1.25;;
5414;SDS011;2730;51.512;7.504;2023-03-30T13:37:20;3.30;;;1.10;;
5414;SDS011;2730;51.512;7.504;2023-03-30T13:39:54;2.28;;;1.50;;
5414;SDS011;2730;51.512;7.504;2023-03-30T13:42:37;2.88;;;1.30;;
5414;SDS011;2730;51.512;7.504;2023-03-30T13:45:15;4.47;;;1.35;;
5414;SDS011;2730;51.512;7.504;2023-03-30T13:47:59;3.47;;;1.40;;
5414;SDS011;2730;51.512;7.504;2023-03-30T13:50:34;1.92;;;1.60;;
5414;SDS011;2730;51.512;7.504;2023-03-30T13:53:02;5.05;;;1.40;;
5414;SDS011;2730;51.512;7.504;2023-03-30T13:55:36;7.65;;;1.80;;
5414;SDS011;2730;51.512;7.504;2023-03-30T13:58:06;3.08;;;1.50;;
5414;SDS011;2730;51.512;7.504;2023-03-30T14:00:40;5.75;;;1.77;;
5414;SDS011;2730;51.512;7.504;2023-03-30T14:03:31;5.70;;;2.15;;
5414;SDS011;2730;51.512;7.504;2023-03-30T14:06:04;1.58;;;1.30;;
5414;SDS011;2730;51.512;7.504;2023-03-30T14:08:33;12.95;;;1.38;;
5414;SDS011;2730;51.512;7.504;2023-03-30T14:11:11;5.70;;;1.80;;
5414;SDS011;2730;51.512;7.504;2023-03-30T14:13:41;5.13;;;2.40;;
5414;SDS011;2730;51.512;7.504;2023-03-30T14:16:10;4.43;;;1.75;;
5414;SDS011;2730;51.512;7.504;2023-03-30T14:18:44;5.55;;;2.00;;
5414;SDS011;2730;51.512;7.504;2023-03-30T14:21:12;4.80;;;2.28;;
5414;SDS011;2730;51.512;7.504;2023-03-30T14:23:43;5.65;;;1.77;;
5414;SDS011;2730;51.512;7.504;2023-03-30T14:26:13;4.30;;;1.80;;
5414;SDS011;2730;51.512;7.504;2023-03-30T14:28:42;3.90;;;1.70;;
5414;SDS011;2730;51.512;7.504;2023-03-30T14:31:13;4.80;;;1.50;;
5414;SDS011;2730;51.512;7.504;2023-03-30T14:33:41;5.57;;;1.40;;
5414;SDS011;2730;51.512;7.504;2023-03-30T14:36:10;2.23;;;1.60;;
5414;SDS011;2730;51.512;7.504;2023-03-30T14:38:41;5.20;;;1.90;;
5414;SDS011;2730;51.512;7.504;2023-03-30T14:41:12;5.77;;;2.07;;
5414;SDS011;2730;51.512;7.504;2023-03-30T14:43:43;5.93;;;1.73;;
5414;SDS011;2730;51.512;7.504;2023-03-30T14:46:14;10.47;;;1.70;;
5414;SDS011;2730;51.512;7.504;2023-03-30T14:48:42;8.27;;;1.40;;
5414;SDS011;2730;51.512;7.504;2023-03-30T14:51:20;3.87;;;2.03;;
5414;SDS011;2730;51.512;7.504;2023-03-30T14:53:49;2.43;;;1.80;;
5414;SDS011;2730;51.512;7.504;2023-03-30T14:56:17;7.20;;;2.47;;
5414;SDS011;2730;51.512;7.504;2023-03-30T14:58:46;6.67;;;1.43;;
5414;SDS011;2730;51.512;7.504;2023-03-30T15:01:17;4.80;;;1.40;;
5414;SDS011;2730;51.512;7.504;2023-03-30T15:03:49;4.73;;;1.30;;
5414;SDS011;2730;51.512;7.504;2023-03-30T15:06:21;6.33;;;2.07;;
5414;SDS011;2730;51.512;7.504;2023-03-30T15:08:50;5.73;;;2.30;;
5414;SDS011;2730;51.512;7.504;2023-03-30T15:11:18;6.00;;;1.80;;
5414;SDS011;2730;51.512;7.504;2023-03-30T15:13:46;8.25;;;2.08;;
5414;SDS011;2730;51.512;7.504;2023-03-30T15:16:17;5.15;;;1.40;;
5414;SDS011;2730;51.512;7.504;2023-03-30T15:18:47;12.18;;;1.85;;
5414;SDS011;2730;51.512;7.504;2023-03-30T15:21:15;14.43;;;3.40;;
5414;SDS011;2730;51.512;7.504;2023-03-30T15:23:45;5.80;;;1.90;;
5414;SDS011;2730;51.512;7.504;2023-03-30T15:26:14;14.10;;;1.70;;
5414;SDS011;2730;51.512;7.504;2023-03-30T15:28:43;6.30;;;1.90;;
5414;SDS011;2730;51.512;7.504;2023-03-30T15:31:13;10.27;;;2.80;;
5414;SDS011;2730;51.512;7.504;2023-03-30T15:33:42;2.88;;;1.75;;
5414;SDS011;2730;51.512;7.504;2023-03-30T15:36:10;4.15;;;2.08;;
5414;SDS011;2730;51.512;7.504;2023-03-30T15:38:43;6.25;;;1.65;;
5414;SDS011;2730;51.512;7.504;2023-03-30T15:41:17;5.30;;;3.08;;
5414;SDS011;2730;51.512;7.504;2023-03-30T15:43:51;8.88;;;2.25;;
5414;SDS011;2730;51.512;7.504;2023-03-30T15:46:19;7.90;;;1.90;;
5414;SDS011;2730;51.512;7.504;2023-03-30T15:48:47;2.72;;;1.65;;
5414;SDS011;2730;51.512;7.504;2023-03-30T15:51:15;7.30;;;1.83;;
5414;SDS011;2730;51.512;7.504;2023-03-30T15:53:47;11.18;;;2.00;;
5414;SDS011;2730;51.512;7.504;2023-03-30T15:56:18;3.47;;;2.47;;
5414;SDS011;2730;51.512;7.504;2023-03-30T15:58:47;15.15;;;1.98;;
5414;SDS011;2730;51.512;7.504;2023-03-30T16:01:15;8.68;;;2.17;;